Time;durP1;ratioP1;P1;durP2;ratioP2;P2;SDS_P1;SDS_P2;PMS_P1;PMS_P2;Temp;Humidity;BMP_temperature;BMP_pressure;BME280_temperature;BME280_humidity;BME280_pressure;Samples;Min_cycle;Max_cycle;Signal;HPM_P1;HPM_P2
2021/06/20 00:00:19;;;;;;;25.33;18.80;;;;;;;15.40;87.02;100950.41;683355;29;916;-70
2021/06/20 00:00:40;;;;;;;24.25;17.83;;;;;;;15.41;86.92;100944.16;683369;29;860;-67
2021/06/20 00:01:00;;;;;;;26.37;17.90;;;;;;;15.47;86.76;100933.16;683163;29;1093;-67
2021/06/20 00:01:20;;;;;;;27.00;18.02;;;;;;;15.47;87.08;100938.47;683222;29;988;-68
2021/06/20 00:01:41;;;;;;;28.90;18.17;;;;;;;15.48;87.01;100934.03;683381;29;817;-68
2021/06/20 00:02:01;;;;;;;27.00;17.83;;;;;;;15.45;86.69;100937.75;683249;29;888;-67
2021/06/20 00:02:22;;;;;;;25.52;18.08;;;;;;;15.46;86.80;100935.94;683399;29;816;-67
2021/06/20 00:02:43;;;;;;;27.00;18.27;;;;;;;15.43;87.34;100932.50;682991;29;852;-67
2021/06/20 00:03:06;;;;;;;26.17;18.05;;;;;;;15.45;87.27;100935.09;683065;29;871;-68
2021/06/20 00:03:26;;;;;;;28.02;18.73;;;;;;;15.43;87.45;100936.97;683274;29;1114;-66
2021/06/20 00:03:46;;;;;;;27.90;18.60;;;;;;;15.42;87.28;100936.13;683223;29;988;-67
2021/06/20 00:04:07;;;;;;;28.53;18.93;;;;;;;15.38;87.27;100937.25;683339;29;861;-68
2021/06/20 00:04:27;;;;;;;29.48;18.45;;;;;;;15.37;87.56;100942.63;683205;29;992;-68
2021/06/20 00:04:47;;;;;;;28.47;18.20;;;;;;;15.35;87.06;100933.94;683370;29;876;-69
2021/06/20 00:05:10;;;;;;;28.50;18.30;;;;;;;15.36;87.53;100935.63;683171;29;825;-68
2021/06/20 00:05:36;;;;;;;27.23;18.27;;;;;;;15.34;87.53;100942.81;683222;29;1086;-68
2021/06/20 00:06:04;;;;;;;28.10;17.92;;;;;;;15.33;87.51;100946.44;683246;29;895;-68
2021/06/20 00:06:34;;;;;;;29.17;18.38;;;;;;;15.32;87.68;100939.41;683237;29;840;-68
2021/06/20 00:06:54;;;;;;;30.50;19.20;;;;;;;15.32;87.77;100940.25;683315;29;857;-66
2021/06/20 00:07:14;;;;;;;27.40;18.95;;;;;;;15.32;87.45;100942.06;683157;29;1012;-68
2021/06/20 00:07:36;;;;;;;27.40;18.00;;;;;;;15.31;87.51;100933.25;683224;29;1017;-68
2021/06/20 00:08:04;;;;;;;29.42;17.83;;;;;;;15.29;87.56;100936.94;683307;29;821;-66
2021/06/20 00:08:24;;;;;;;29.30;17.70;;;;;;;15.27;87.43;100930.84;683176;29;1184;-69
2021/06/20 00:08:44;;;;;;;27.92;18.58;;;;;;;15.13;87.91;100935.19;683284;29;1914;-68
2021/06/20 00:09:08;;;;;;;27.00;18.03;;;;;;;15.16;88.12;100931.50;683246;29;1051;-68
2021/06/20 00:09:29;;;;;;;25.42;17.10;;;;;;;15.20;87.98;100925.91;683224;29;892;-69
2021/06/20 00:09:49;;;;;;;26.02;17.27;;;;;;;15.17;88.05;100935.84;683306;29;976;-68
2021/06/20 00:10:10;;;;;;;27.17;16.90;;;;;;;15.16;87.99;100929.69;683310;29;884;-69
2021/06/20 00:10:33;;;;;;;27.23;17.65;;;;;;;15.16;88.07;100929.69;683350;29;1242;-67
2021/06/20 00:10:53;;;;;;;24.50;16.77;;;;;;;15.17;88.05;100928.78;683340;29;925;-68
2021/06/20 00:11:13;;;;;;;23.80;16.10;;;;;;;15.18;87.85;100921.66;683061;29;849;-68
2021/06/20 00:11:35;;;;;;;23.87;15.83;;;;;;;15.18;87.61;100917.19;683282;29;836;-66
2021/06/20 00:11:56;;;;;;;24.33;16.48;;;;;;;15.19;87.77;100920.69;683337;29;1010;-66
2021/06/20 00:12:16;;;;;;;26.63;17.27;;;;;;;15.10;87.77;100916.78;683323;29;864;-68
2021/06/20 00:12:38;;;;;;;26.50;16.83;;;;;;;15.14;88.13;100918.34;683293;29;983;-68
2021/06/20 00:12:59;;;;;;;24.75;16.38;;;;;;;15.16;88.10;100924.38;682886;29;841;-67
2021/06/20 00:13:20;;;;;;;24.00;15.48;;;;;;;15.17;88.12;100928.78;683052;28;1420;-68
2021/06/20 00:13:40;;;;;;;22.15;15.20;;;;;;;15.19;88.19;100932.16;683395;29;868;-69
2021/06/20 00:14:02;;;;;;;24.07;15.63;;;;;;;15.20;88.19;100935.69;683286;29;933;-68
2021/06/20 00:14:22;;;;;;;24.98;16.02;;;;;;;15.11;87.75;100942.41;683256;29;1011;-65
2021/06/20 00:14:42;;;;;;;23.23;15.90;;;;;;;15.12;87.76;100938.78;683269;29;857;-69
2021/06/20 00:15:05;;;;;;;26.77;16.17;;;;;;;15.15;87.83;100941.28;683265;29;968;-69
2021/06/20 00:15:28;;;;;;;23.45;15.10;;;;;;;15.17;87.76;100947.34;683081;29;905;-69
2021/06/20 00:15:49;;;;;;;22.30;15.02;;;;;;;15.20;87.79;100946.28;683161;29;964;-67
2021/06/20 00:16:10;;;;;;;21.83;15.07;;;;;;;15.22;87.91;100944.41;683270;29;986;-67
2021/06/20 00:16:31;;;;;;;22.48;14.68;;;;;;;15.24;87.90;100942.50;683273;29;856;-69
2021/06/20 00:16:51;;;;;;;23.23;15.10;;;;;;;15.25;87.83;100948.69;683351;29;980;-68
2021/06/20 00:17:12;;;;;;;23.87;15.07;;;;;;;15.26;87.91;100947.75;683285;29;822;-68
2021/06/20 00:17:32;;;;;;;22.83;14.70;;;;;;;15.27;87.57;100952.94;683041;29;805;-68
2021/06/20 00:17:53;;;;;;;21.77;14.77;;;;;;;15.29;87.56;100958.19;683325;29;980;-67
2021/06/20 00:18:15;;;;;;;21.75;14.43;;;;;;;15.30;87.58;100951.91;683374;29;813;-68
2021/06/20 00:18:35;;;;;;;23.23;14.75;;;;;;;15.28;87.69;100960.00;683183;29;837;-66
2021/06/20 00:18:56;;;;;;;24.60;15.10;;;;;;;15.26;87.40;100953.06;683365;29;932;-68
2021/06/20 00:19:17;;;;;;;22.10;15.07;;;;;;;15.25;87.41;100959.31;682926;29;849;-69
2021/06/20 00:19:37;;;;;;;22.30;14.90;;;;;;;15.25;87.46;100946.03;682883;29;813;-69
2021/06/20 00:19:57;;;;;;;21.90;14.30;;;;;;;15.26;87.57;100950.41;683079;29;1006;-67
2021/06/20 00:20:19;;;;;;;22.70;14.43;;;;;;;15.15;87.39;100949.22;683056;29;904;-68
2021/06/20 00:20:43;;;;;;;22.30;14.68;;;;;;;15.18;87.84;100953.50;682944;29;1083;-69
2021/06/20 00:21:03;;;;;;;21.85;14.55;;;;;;;15.19;87.64;100949.91;683179;29;936;-68
2021/06/20 00:21:24;;;;;;;22.63;14.02;;;;;;;15.17;87.60;100946.47;682970;29;1074;-68
2021/06/20 00:21:44;;;;;;;22.27;13.90;;;;;;;15.15;87.82;100951.03;683173;29;837;-67
2021/06/20 00:22:05;;;;;;;22.77;13.80;;;;;;;15.12;87.78;100953.88;683152;29;979;-66
2021/06/20 00:22:25;;;;;;;21.30;13.55;;;;;;;15.12;87.68;100949.41;683345;29;880;-68
2021/06/20 00:22:46;;;;;;;18.13;12.83;;;;;;;15.12;87.58;100960.03;682788;29;857;-69
2021/06/20 00:23:07;;;;;;;17.80;13.07;;;;;;;15.05;87.61;100958.69;683055;28;1304;-65
2021/06/20 00:23:28;;;;;;;17.98;13.05;;;;;;;15.09;87.47;100968.16;683130;29;814;-67
2021/06/20 00:23:48;;;;;;;19.63;12.83;;;;;;;15.13;87.76;100967.03;683246;29;833;-68
2021/06/20 00:24:09;;;;;;;20.93;13.30;;;;;;;15.10;87.68;100971.66;683193;29;889;-69
2021/06/20 00:24:29;;;;;;;23.83;13.53;;;;;;;15.00;87.90;100966.03;683282;29;876;-65
2021/06/20 00:24:49;;;;;;;24.07;13.33;;;;;;;14.99;88.15;100968.78;683160;29;1011;-68
2021/06/20 00:25:11;;;;;;;18.73;13.18;;;;;;;14.95;88.24;100968.97;683246;29;992;-71
2021/06/20 00:25:31;;;;;;;18.17;13.27;;;;;;;14.94;88.40;100971.72;683200;29;950;-70
2021/06/20 00:25:51;;;;;;;18.65;12.65;;;;;;;14.99;88.41;100969.66;683079;29;1004;-70
2021/06/20 00:26:12;;;;;;;23.83;13.70;;;;;;;14.99;88.58;100969.66;683281;29;884;-68
2021/06/20 00:26:32;;;;;;;24.50;14.20;;;;;;;15.05;88.38;100969.28;683171;29;1012;-69
2021/06/20 00:26:52;;;;;;;21.60;13.98;;;;;;;15.06;88.30;100973.66;683160;29;934;-67
2021/06/20 00:27:13;;;;;;;22.97;13.53;;;;;;;15.10;88.16;100964.56;683285;29;940;-66
2021/06/20 00:27:33;;;;;;;19.73;13.07;;;;;;;15.08;88.35;100976.22;683109;29;822;-67
2021/06/20 00:27:54;;;;;;;24.20;13.37;;;;;;;15.07;88.45;100966.53;683120;29;881;-70
2021/06/20 00:28:15;;;;;;;22.20;13.15;;;;;;;15.09;88.47;100964.66;683253;29;729;-68
2021/06/20 00:28:35;;;;;;;21.90;13.13;;;;;;;15.11;88.19;100962.78;683161;29;1012;-70
2021/06/20 00:28:55;;;;;;;20.30;12.87;;;;;;;15.11;88.21;100968.94;683114;29;1953;-68
2021/06/20 00:29:15;;;;;;;20.40;13.23;;;;;;;15.00;88.23;100963.38;683221;29;916;-65
2021/06/20 00:29:36;;;;;;;25.97;13.83;;;;;;;14.94;88.80;100966.41;683066;29;944;-68
2021/06/20 00:29:56;;;;;;;19.75;13.15;;;;;;;15.01;88.69;100956.31;683219;29;845;-68
2021/06/20 00:30:19;;;;;;;18.47;13.00;;;;;;;14.95;88.39;100961.00;683249;29;944;-69
2021/06/20 00:30:40;;;;;;;19.42;12.77;;;;;;;14.90;88.47;100954.25;683046;29;1263;-69
2021/06/20 00:31:00;;;;;;;22.07;13.13;;;;;;;14.83;88.61;100952.91;683333;29;844;-67
2021/06/20 00:31:21;;;;;;;18.83;13.23;;;;;;;14.93;88.89;100956.72;683149;29;896;-69
2021/06/20 00:31:41;;;;;;;17.60;12.60;;;;;;;14.99;88.82;100951.06;683210;29;900;-69
2021/06/20 00:32:01;;;;;;;17.77;12.50;;;;;;;14.96;88.32;100943.28;683162;29;936;-71
2021/06/20 00:32:22;;;;;;;18.83;12.52;;;;;;;15.00;88.60;100944.81;683190;29;877;-66
2021/06/20 00:32:43;;;;;;;16.80;12.20;;;;;;;15.09;88.58;100944.28;682945;29;1088;-67
2021/06/20 00:33:04;;;;;;;18.10;12.13;;;;;;;15.02;88.33;100942.94;683093;28;1370;-67
2021/06/20 00:33:25;;;;;;;19.80;12.40;;;;;;;14.92;88.26;100941.75;683031;29;1023;-67
2021/06/20 00:33:45;;;;;;;18.83;12.33;;;;;;;14.88;88.42;100938.44;683160;29;812;-67
2021/06/20 00:34:05;;;;;;;19.98;12.68;;;;;;;14.80;88.44;100931.88;683218;29;907;-69
2021/06/20 00:34:25;;;;;;;18.03;12.70;;;;;;;14.82;88.79;100936.13;683150;29;823;-69
2021/06/20 00:34:46;;;;;;;19.47;11.77;;;;;;;14.86;88.90;100931.50;683205;29;972;-68
2021/06/20 00:35:06;;;;;;;21.70;12.38;;;;;;;14.86;88.98;100928.84;683151;29;925;-69
2021/06/20 00:35:27;;;;;;;20.07;12.13;;;;;;;14.82;89.11;100925.50;683185;29;1030;-71
2021/06/20 00:35:47;;;;;;;17.30;12.03;;;;;;;14.83;88.98;100926.38;683178;29;820;-69
2021/06/20 00:36:08;;;;;;;18.10;12.20;;;;;;;14.76;88.86;100915.25;683026;29;977;-66
2021/06/20 00:36:29;;;;;;;19.33;12.40;;;;;;;14.73;89.05;100920.75;683269;29;1054;-69
2021/06/20 00:36:49;;;;;;;22.07;12.13;;;;;;;14.83;88.92;100921.06;683287;29;852;-67
2021/06/20 00:37:09;;;;;;;19.47;11.93;;;;;;;14.88;88.99;100909.25;683153;29;1014;-67
2021/06/20 00:37:30;;;;;;;16.63;11.40;;;;;;;14.93;89.08;100911.63;683156;29;833;-69
2021/06/20 00:37:50;;;;;;;16.87;11.83;;;;;;;14.93;88.50;100907.19;683162;29;812;-66
2021/06/20 00:38:11;;;;;;;14.85;11.80;;;;;;;14.87;88.45;100902.25;683120;29;896;-67
2021/06/20 00:38:31;;;;;;;15.80;11.57;;;;;;;14.77;88.52;100900.22;683238;29;1032;-67
2021/06/20 00:38:51;;;;;;;18.15;11.50;;;;;;;14.83;88.70;100898.06;683120;29;825;-67
2021/06/20 00:39:12;;;;;;;18.13;11.83;;;;;;;14.82;88.70;100898.13;683196;29;849;-69
2021/06/20 00:39:33;;;;;;;16.90;11.60;;;;;;;14.78;88.76;100893.94;683091;29;1015;-67
2021/06/20 00:39:53;;;;;;;18.35;11.55;;;;;;;14.77;88.78;100889.59;683033;29;1012;-67
2021/06/20 00:40:15;;;;;;;16.77;11.07;;;;;;;14.65;88.79;100886.69;683200;29;885;-66
2021/06/20 00:40:36;;;;;;;18.38;11.48;;;;;;;14.59;89.16;100889.72;683172;29;817;-67
2021/06/20 00:40:57;;;;;;;21.90;12.10;;;;;;;14.64;89.02;100879.69;683121;29;872;-69
2021/06/20 00:41:17;;;;;;;18.10;11.88;;;;;;;14.65;89.16;100881.38;683161;29;1094;-67
2021/06/20 00:41:38;;;;;;;18.23;11.43;;;;;;;14.66;88.87;100872.50;683077;29;921;-65
2021/06/20 00:41:59;;;;;;;15.27;11.30;;;;;;;14.62;88.84;100868.31;683119;29;888;-65
2021/06/20 00:42:19;;;;;;;14.77;10.98;;;;;;;14.63;89.08;100871.84;683091;29;934;-69
2021/06/20 00:42:39;;;;;;;13.77;10.27;;;;;;;14.54;88.62;100861.75;682800;29;935;-68
2021/06/20 00:43:00;;;;;;;13.67;10.33;;;;;;;14.53;88.87;100866.19;682899;28;1323;-69
2021/06/20 00:43:20;;;;;;;13.45;10.60;;;;;;;14.47;88.83;100858.56;683153;29;1027;-68
2021/06/20 00:43:41;;;;;;;14.20;10.00;;;;;;;14.49;89.04;100868.16;683085;29;832;-70
2021/06/20 00:44:02;;;;;;;16.77;10.33;;;;;;;14.41;89.63;100857.09;683213;29;1004;-67
2021/06/20 00:44:22;;;;;;;16.30;10.95;;;;;;;14.38;89.39;100856.44;683174;29;845;-66
2021/06/20 00:44:47;;;;;;;15.13;10.95;;;;;;;14.41;89.28;100861.56;683079;29;857;-67
2021/06/20 00:45:10;;;;;;;13.27;10.60;;;;;;;14.39;89.50;100859.00;683149;29;903;-66
2021/06/20 00:45:30;;;;;;;15.10;10.48;;;;;;;14.42;89.40;100858.00;683073;29;961;-69
2021/06/20 00:45:51;;;;;;;14.18;10.23;;;;;;;14.43;89.23;100854.38;680377;29;1052;-68
2021/06/20 00:46:11;;;;;;;13.03;10.60;;;;;;;14.44;89.20;100861.38;680380;29;963;-68
2021/06/20 00:46:31;;;;;;;12.90;10.00;;;;;;;14.48;89.61;100862.91;680255;29;880;-70
2021/06/20 00:46:51;;;;;;;16.47;10.07;;;;;;;14.48;89.68;100857.63;680439;29;829;-69
2021/06/20 00:47:13;;;;;;;15.70;10.27;;;;;;;14.46;89.69;100859.50;680273;29;877;-67
2021/06/20 00:47:33;;;;;;;16.77;10.45;;;;;;;14.44;89.48;100861.38;680742;29;892;-71
2021/06/20 00:47:55;;;;;;;14.03;10.20;;;;;;;14.40;89.70;100868.66;683165;29;881;-71
2021/06/20 00:48:15;;;;;;;13.73;10.07;;;;;;;14.43;89.77;100859.69;683041;29;812;-69
2021/06/20 00:48:36;;;;;;;13.07;9.87;;;;;;;14.44;89.64;100866.69;683100;29;1034;-70
2021/06/20 00:48:56;;;;;;;13.88;9.75;;;;;;;14.45;89.77;100858.66;683129;29;1992;-68
2021/06/20 00:49:17;;;;;;;16.03;10.63;;;;;;;14.45;89.82;100863.97;683018;29;985;-71
2021/06/20 00:49:38;;;;;;;14.98;10.80;;;;;;;14.49;89.61;100862.00;683167;29;841;-68
2021/06/20 00:49:58;;;;;;;16.00;10.27;;;;;;;14.50;89.70;100861.06;683211;29;825;-66
2021/06/20 00:50:18;;;;;;;14.57;9.90;;;;;;;14.43;89.85;100859.69;683119;29;809;-69
2021/06/20 00:50:39;;;;;;;13.27;10.02;;;;;;;14.39;89.56;100863.47;683199;29;975;-69
2021/06/20 00:50:59;;;;;;;13.33;9.90;;;;;;;14.42;89.66;100863.28;683020;29;885;-68
2021/06/20 00:51:19;;;;;;;13.07;9.90;;;;;;;14.41;89.83;100856.25;680237;29;822;-69
2021/06/20 00:51:40;;;;;;;12.35;9.52;;;;;;;14.37;89.35;100865.34;680256;29;1109;-69
2021/06/20 00:52:00;;;;;;;12.83;9.60;;;;;;;14.37;89.64;100865.34;680318;29;837;-67
2021/06/20 00:52:22;;;;;;;14.75;9.70;;;;;;;14.37;89.52;100854.72;680377;29;877;-68
2021/06/20 00:52:42;;;;;;;12.93;9.75;;;;;;;14.41;89.43;100853.59;680086;29;889;-68
2021/06/20 00:53:04;;;;;;;12.50;9.40;;;;;;;14.44;89.45;100862.25;680345;29;1345;-68
2021/06/20 00:53:24;;;;;;;14.10;10.10;;;;;;;14.46;89.74;100862.16;683178;29;979;-68
2021/06/20 00:53:45;;;;;;;14.07;10.13;;;;;;;14.46;89.50;100862.16;683144;29;777;-69
2021/06/20 00:54:05;;;;;;;13.45;10.18;;;;;;;14.46;89.38;100860.38;683132;29;872;-68
2021/06/20 00:54:25;;;;;;;13.50;9.60;;;;;;;14.48;89.73;100858.47;683172;29;801;-70
2021/06/20 00:54:49;;;;;;;14.13;9.57;;;;;;;14.46;89.67;100865.66;682874;29;825;-69
2021/06/20 00:55:10;;;;;;;13.82;9.82;;;;;;;14.48;89.81;100866.41;683066;29;1027;-69
2021/06/20 00:55:33;;;;;;;18.35;10.45;;;;;;;14.47;89.65;100864.72;683067;29;936;-68
2021/06/20 00:55:57;;;;;;;15.60;10.73;;;;;;;14.47;89.81;100861.22;683104;29;903;-70
2021/06/20 00:56:17;;;;;;;13.30;10.25;;;;;;;14.45;89.63;100868.38;683041;29;1075;-69
2021/06/20 00:56:39;;;;;;;14.30;10.25;;;;;;;14.44;89.42;100866.69;683345;29;822;-69
2021/06/20 00:57:00;;;;;;;14.23;10.52;;;;;;;14.45;89.90;100865.75;683278;29;877;-69
2021/06/20 00:57:21;;;;;;;15.50;10.73;;;;;;;14.45;90.11;100868.38;683205;29;828;-68
2021/06/20 00:57:41;;;;;;;19.50;10.80;;;;;;;14.43;89.89;100870.28;683193;29;979;-68
2021/06/20 00:58:03;;;;;;;19.15;10.75;;;;;;;14.47;89.61;100871.81;683296;29;777;-70
2021/06/20 00:58:23;;;;;;;15.00;10.55;;;;;;;14.45;89.77;100873.69;683249;29;1046;-71
2021/06/20 00:58:44;;;;;;;17.27;10.73;;;;;;;14.47;90.05;100875.31;683117;29;836;-68
2021/06/20 00:59:05;;;;;;;17.77;10.80;;;;;;;14.45;90.00;100876.34;683185;29;951;-69
2021/06/20 00:59:25;;;;;;;14.13;10.27;;;;;;;14.40;90.09;100875.78;683165;29;977;-69
2021/06/20 00:59:46;;;;;;;17.53;10.67;;;;;;;14.45;90.08;100876.34;683198;29;916;-69
2021/06/20 01:00:09;;;;;;;14.43;10.45;;;;;;;14.49;89.73;100884.06;683326;29;1046;-70
2021/06/20 01:00:30;;;;;;;14.27;10.45;;;;;;;14.50;90.02;100877.00;683059;29;907;-71
2021/06/20 01:00:50;;;;;;;13.20;10.10;;;;;;;14.53;89.91;100878.63;683256;29;837;-68
2021/06/20 01:01:11;;;;;;;19.80;10.60;;;;;;;14.56;89.71;100874.00;683239;29;813;-69
2021/06/20 01:01:33;;;;;;;25.92;11.00;;;;;;;14.61;89.70;100879.88;683185;29;845;-67
2021/06/20 01:01:53;;;;;;;18.55;10.90;;;;;;;14.58;89.58;100880.03;683282;29;875;-67
2021/06/20 01:02:15;;;;;;;18.20;10.83;;;;;;;14.69;89.77;100882.94;683416;29;899;-67
2021/06/20 01:02:35;;;;;;;14.55;10.32;;;;;;;14.72;89.53;100882.75;683299;29;887;-69
2021/06/20 01:02:56;;;;;;;17.63;10.47;;;;;;;14.72;89.33;100880.09;682960;29;828;-69
2021/06/20 01:03:16;;;;;;;20.77;10.93;;;;;;;14.77;88.89;100879.00;683286;29;868;-68
2021/06/20 01:03:36;;;;;;;15.10;10.57;;;;;;;14.87;88.80;100873.06;683196;29;813;-70
2021/06/20 01:03:57;;;;;;;14.18;10.20;;;;;;;14.86;88.61;100878.44;683271;29;908;-69
2021/06/20 01:04:17;;;;;;;16.43;10.27;;;;;;;14.93;88.57;100874.47;683149;29;806;-69
2021/06/20 01:04:47;;;;;;;17.27;10.40;;;;;;;14.95;88.47;100875.25;683340;29;924;-69
2021/06/20 01:05:09;;;;;;;16.83;10.00;;;;;;;15.02;88.12;100873.94;683237;29;888;-68
2021/06/20 01:05:29;;;;;;;15.05;9.88;;;;;;;15.11;87.78;100873.38;683180;29;908;-68
2021/06/20 01:05:50;;;;;;;19.07;10.13;;;;;;;15.04;87.80;100866.75;682980;29;1461;-69
2021/06/20 01:06:10;;;;;;;19.17;10.00;;;;;;;15.05;87.45;100876.41;683153;29;797;-67
2021/06/20 01:06:30;;;;;;;17.02;10.00;;;;;;;15.06;87.59;100875.44;683229;29;935;-70
2021/06/20 01:06:51;;;;;;;14.00;9.73;;;;;;;15.07;87.30;100874.53;683262;29;921;-68
2021/06/20 01:07:15;;;;;;;14.53;9.40;;;;;;;15.08;87.50;100868.25;683174;29;980;-67
2021/06/20 01:07:36;;;;;;;15.20;9.68;;;;;;;14.92;87.35;100873.63;683105;29;841;-67
2021/06/20 01:07:57;;;;;;;15.52;9.50;;;;;;;14.81;87.24;100878.72;682875;28;1070;-67
2021/06/20 01:08:17;;;;;;;13.10;9.57;;;;;;;14.79;87.64;100874.44;682769;29;865;-67
2021/06/20 01:08:38;;;;;;;14.87;9.57;;;;;;;14.78;87.97;100880.69;683103;29;805;-67
2021/06/20 01:08:59;;;;;;;14.25;9.07;;;;;;;14.76;88.06;100886.06;683078;29;1919;-69
2021/06/20 01:09:19;;;;;;;16.40;9.55;;;;;;;14.87;87.99;100875.69;683284;29;1012;-68
2021/06/20 01:09:39;;;;;;;15.37;9.53;;;;;;;14.99;88.15;100878.56;683101;29;895;-68
2021/06/20 01:10:00;;;;;;;14.00;9.30;;;;;;;14.97;87.87;100876.00;683083;29;1015;-68
2021/06/20 01:10:27;;;;;;;17.67;9.83;;;;;;;14.94;87.60;100881.50;683273;29;876;-69
2021/06/20 01:10:48;;;;;;;18.70;9.80;;;;;;;14.99;87.35;100878.56;683140;29;896;-69
2021/06/20 01:11:08;;;;;;;15.98;9.25;;;;;;;14.95;87.39;100883.19;683200;29;979;-69
2021/06/20 01:11:28;;;;;;;14.20;9.50;;;;;;;14.96;87.65;100884.91;683197;29;813;-68
2021/06/20 01:11:48;;;;;;;14.73;9.55;;;;;;;14.91;87.32;100884.34;682937;29;943;-66
2021/06/20 01:12:10;;;;;;;13.23;9.03;;;;;;;14.90;87.38;100877.28;683126;29;849;-67
2021/06/20 01:12:30;;;;;;;11.82;8.80;;;;;;;14.91;87.40;100881.69;683091;29;1721;-67
2021/06/20 01:12:50;;;;;;;11.57;8.43;;;;;;;14.93;87.71;100878.00;682617;29;976;-66
2021/06/20 01:13:14;;;;;;;13.70;8.73;;;;;;;14.88;87.39;100881.84;682999;28;1342;-69
2021/06/20 01:13:34;;;;;;;11.60;8.52;;;;;;;14.80;87.27;100876.16;683017;29;924;-70
2021/06/20 01:13:55;;;;;;;11.20;8.57;;;;;;;14.75;87.34;100880.88;683129;29;931;-69
2021/06/20 01:14:15;;;;;;;11.55;8.60;;;;;;;14.71;87.99;100881.03;683181;29;820;-67
2021/06/20 01:14:36;;;;;;;16.70;9.27;;;;;;;14.75;88.24;100875.56;683114;29;813;-68
2021/06/20 01:14:56;;;;;;;20.58;9.38;;;;;;;14.75;88.25;100876.41;683072;29;1654;-68
2021/06/20 01:15:17;;;;;;;17.30;8.97;;;;;;;14.79;88.58;100871.78;683176;29;1012;-68
2021/06/20 01:15:40;;;;;;;13.10;9.07;;;;;;;14.75;88.51;100875.56;683061;29;952;-67
2021/06/20 01:16:00;;;;;;;13.50;8.63;;;;;;;14.64;88.22;100868.22;683097;29;833;-66
2021/06/20 01:16:21;;;;;;;16.30;9.10;;;;;;;14.67;88.45;100873.34;683140;29;964;-68
2021/06/20 01:16:42;;;;;;;12.68;8.95;;;;;;;14.61;88.67;100871.91;683190;29;859;-68
2021/06/20 01:17:04;;;;;;;14.17;9.00;;;;;;;14.53;88.78;100871.50;683152;29;944;-68
2021/06/20 01:17:24;;;;;;;18.30;8.68;;;;;;;14.66;89.12;100861.91;683025;29;960;-68
2021/06/20 01:17:45;;;;;;;17.20;8.83;;;;;;;14.65;89.23;100859.31;683068;29;782;-67
2021/06/20 01:18:07;;;;;;;16.55;8.40;;;;;;;14.70;89.34;100863.44;683022;29;968;-69
2021/06/20 01:18:27;;;;;;;13.52;8.25;;;;;;;14.74;88.89;100865.91;683059;29;912;-66
2021/06/20 01:18:47;;;;;;;14.73;8.37;;;;;;;14.80;88.88;100868.19;683149;29;980;-69
2021/06/20 01:19:07;;;;;;;16.48;8.40;;;;;;;14.88;88.83;100860.63;683115;29;797;-66
2021/06/20 01:19:28;;;;;;;16.00;8.20;;;;;;;14.94;88.57;100870.88;683114;29;1249;-68
2021/06/20 01:19:48;;;;;;;13.50;7.80;;;;;;;14.91;88.11;100865.75;682972;29;1023;-68
2021/06/20 01:20:12;;;;;;;12.70;7.88;;;;;;;14.83;88.09;100862.69;683080;29;592;-68
2021/06/20 01:20:33;;;;;;;14.95;7.95;;;;;;;14.78;88.16;100862.13;683077;29;902;-69
2021/06/20 01:20:53;;;;;;;12.30;7.53;;;;;;;14.78;88.45;100860.31;683115;29;904;-67
2021/06/20 01:21:13;;;;;;;14.52;7.47;;;;;;;14.69;88.24;100855.53;683050;29;813;-70
2021/06/20 01:21:34;;;;;;;9.43;7.27;;;;;;;14.69;88.33;100856.41;683149;29;813;-70
2021/06/20 01:21:54;;;;;;;9.00;6.55;;;;;;;14.76;88.18;100861.34;682952;29;1257;-63
2021/06/20 01:22:31;;;;;;;10.70;6.87;;;;;;;14.82;88.48;100853.03;683036;29;782;-68
2021/06/20 01:22:53;;;;;;;12.70;7.15;;;;;;;14.77;88.02;100847.16;682615;29;896;-69
2021/06/20 01:23:13;;;;;;;10.68;7.03;;;;;;;14.69;88.31;100850.22;683191;29;887;-68
2021/06/20 01:23:34;;;;;;;11.13;7.03;;;;;;;14.66;88.49;100850.44;683108;29;801;-70
2021/06/20 01:23:54;;;;;;;10.43;6.72;;;;;;;14.64;88.43;100847.00;682824;29;996;-72
2021/06/20 01:24:15;;;;;;;9.27;6.70;;;;;;;14.57;88.07;100853.63;682987;29;972;-68
2021/06/20 01:24:35;;;;;;;13.32;6.78;;;;;;;14.61;88.85;100848.03;683118;29;903;-65
2021/06/20 01:24:59;;;;;;;14.93;6.90;;;;;;;14.57;88.59;100841.22;683026;29;1011;-67
2021/06/20 01:25:22;;;;;;;12.10;6.97;;;;;;;14.63;88.88;100840.84;683075;29;980;-69
2021/06/20 01:25:43;;;;;;;12.65;6.88;;;;;;;14.66;88.74;100838.03;682981;29;837;-67
2021/06/20 01:26:04;;;;;;;11.50;6.70;;;;;;;14.64;88.88;100839.06;682986;29;904;-71
2021/06/20 01:26:24;;;;;;;10.20;6.83;;;;;;;14.57;88.94;100845.66;683054;29;884;-65
2021/06/20 01:26:44;;;;;;;9.18;6.80;;;;;;;14.53;89.06;100839.69;682951;29;991;-69
2021/06/20 01:27:05;;;;;;;11.97;6.83;;;;;;;14.54;89.38;100840.53;683094;29;817;-67
2021/06/20 01:27:31;;;;;;;16.25;7.30;;;;;;;14.58;89.15;100842.06;683051;29;999;-68
2021/06/20 01:27:56;;;;;;;11.70;6.75;;;;;;;14.53;89.10;100842.34;683023;29;951;-70
2021/06/20 01:28:19;;;;;;;13.13;6.97;;;;;;;14.68;89.30;100844.06;683101;29;975;-66
2021/06/20 01:28:52;;;;;;;10.27;6.70;;;;;;;14.71;89.08;100843.06;683004;29;825;-68
2021/06/20 01:29:15;;;;;;;11.93;6.60;;;;;;;14.77;89.21;100841.84;683094;29;951;-69
2021/06/20 01:29:44;;;;;;;12.27;6.63;;;;;;;14.75;88.74;100838.41;683066;29;805;-66
2021/06/20 01:30:07;;;;;;;14.20;6.80;;;;;;;14.67;88.68;100834.41;682990;29;841;-67
2021/06/20 01:30:30;;;;;;;10.75;6.50;;;;;;;14.65;88.76;100838.09;682945;29;829;-71
2021/06/20 01:30:58;;;;;;;13.50;6.82;;;;;;;14.62;89.11;100841.78;683022;29;842;-68
2021/06/20 01:31:19;;;;;;;12.30;6.40;;;;;;;14.64;88.83;100841.72;682938;29;903;-68
2021/06/20 01:31:48;;;;;;;17.95;7.50;;;;;;;14.65;89.40;100832.78;683075;29;817;-68
2021/06/20 01:32:08;;;;;;;11.27;6.53;;;;;;;14.69;89.14;100839.63;683060;29;958;-66
2021/06/20 01:32:28;;;;;;;10.68;6.50;;;;;;;14.59;89.29;100831.38;682931;29;865;-67
2021/06/20 01:32:49;;;;;;;15.80;6.60;;;;;;;14.55;89.31;100829.81;682690;29;916;-68
2021/06/20 01:33:11;;;;;;;13.10;6.47;;;;;;;14.59;89.72;100838.44;682923;28;1364;-69
2021/06/20 01:33:32;;;;;;;17.80;7.00;;;;;;;14.60;89.88;100837.53;683123;29;912;-69
2021/06/20 01:33:52;;;;;;;8.83;6.70;;;;;;;14.59;89.65;100828.72;683042;29;841;-68
2021/06/20 01:34:12;;;;;;;9.38;6.32;;;;;;;14.63;89.83;100830.25;682770;29;1013;-69
2021/06/20 01:34:32;;;;;;;11.70;6.33;;;;;;;14.57;89.37;100841.22;683069;29;849;-71
2021/06/20 01:34:53;;;;;;;11.47;6.40;;;;;;;14.61;89.82;100834.78;683077;29;988;-69
2021/06/20 01:35:14;;;;;;;14.63;6.93;;;;;;;14.63;89.73;100830.25;682927;29;1066;-71
2021/06/20 01:35:35;;;;;;;13.25;6.75;;;;;;;14.59;89.81;100828.72;683133;29;887;-71
2021/06/20 01:35:55;;;;;;;13.10;6.32;;;;;;;14.50;89.68;100829.25;680093;29;893;-69
2021/06/20 01:36:16;;;;;;;12.47;6.63;;;;;;;14.45;89.69;100829.50;680142;29;856;-69
2021/06/20 01:36:36;;;;;;;8.77;6.50;;;;;;;14.48;89.95;100833.75;680248;29;916;-71
2021/06/20 01:36:56;;;;;;;9.60;6.00;;;;;;;14.47;89.76;100827.59;680112;29;1156;-72
2021/06/20 01:37:17;;;;;;;11.70;6.47;;;;;;;14.49;89.87;100832.81;680282;29;853;-68
2021/06/20 01:37:38;;;;;;;15.43;7.03;;;;;;;14.44;90.28;100824.25;680351;29;1320;-68
2021/06/20 01:38:00;;;;;;;12.45;6.60;;;;;;;14.43;90.04;100825.22;682744;29;969;-68
2021/06/20 01:38:20;;;;;;;8.32;6.05;;;;;;;14.42;89.91;100826.16;682883;29;847;-70
2021/06/20 01:38:41;;;;;;;7.70;5.82;;;;;;;14.40;89.83;100822.75;682842;29;912;-70
2021/06/20 01:39:01;;;;;;;10.03;6.07;;;;;;;14.40;90.39;100826.25;682816;29;1035;-71
2021/06/20 01:39:21;;;;;;;12.87;6.40;;;;;;;14.44;90.11;100826.91;682922;29;995;-71
2021/06/20 01:39:42;;;;;;;8.95;5.90;;;;;;;14.43;89.95;100826.06;683008;29;909;-71
2021/06/20 01:40:05;;;;;;;8.82;5.95;;;;;;;14.43;90.26;100822.56;682979;29;798;-71